Latest Weather Observations for Kiama

IDN60801

Issued at 11:05 pm EDT Saturday 25 October 2014 (issued every 30 minutes, with the page automatically refreshed every 10 minutes)

About weather observations | Map of weather stations | Latest weather observations for NSW | Other Formats
Station Details ID: 068242 Name: KIAMA (BOMBO HEADLAND) Lat: -34.65 Lon: 150.86 Height: 15.5 m
Data from the previous 72 hours. | See also: Recent months at Kiama
Date/Time
EDT
Temp
°C
App
Temp
°C
Dew
Point
Rel
Hum
%
Delta-T
°C
Wind Press
QNH
hPa
Press
MSL
hPa
Rain
since 9 am
mm
Dir
 
Spd
km/h
Gust
km/h
Spd
kts
Gust
kts
25/11:00pm 18.7 20.6 16.7 88 1.2 SE 2 7 1 4 - - 0.2
25/10:30pm 18.7 20.6 16.7 88 1.2 WNW 2 13 1 7 - - 0.0
25/10:00pm 18.6 20.5 16.6 88 1.2 SW 2 9 1 5 - - 0.0
25/09:30pm 18.4 20.6 16.4 88 1.2 CALM 0 0 0 0 - - 0.0
25/09:00pm 18.5 20.7 16.5 88 1.2 CALM 0 4 0 2 - - 0.0
25/08:30pm 18.5 20.3 16.5 88 1.2 WNW 2 6 1 3 - - 0.0
25/08:00pm 18.3 18.4 16.5 89 1.1 S 11 17 6 9 - - 0.0
25/07:30pm 18.2 16.6 16.4 89 1.1 S 20 26 11 14 - - 0.0
25/07:00pm 18.2 16.1 16.2 88 1.2 S 22 32 12 17 - - 0.0
25/06:30pm 18.5 13.2 16.3 87 1.3 S 39 48 21 26 - - 0.0
25/06:00pm 18.9 15.5 16.7 87 1.3 S 30 37 16 20 - - 0.0
25/05:30pm 18.8 15.3 16.6 87 1.3 S 30 39 16 21 - - 0.0
25/05:00pm 18.9 15.4 16.5 86 1.4 S 30 41 16 22 - - 0.0
25/04:30pm 19.2 16.2 16.8 86 1.4 S 28 37 15 20 - - 0.0
25/04:00pm 19.2 15.2 16.8 86 1.4 S 33 44 18 24 - - 0.0
25/03:30pm 19.3 15.4 16.9 86 1.5 S 33 44 18 24 - - 0.0
25/03:00pm 19.3 15.4 16.9 86 1.5 S 33 43 18 23 - - 0.0
25/02:30pm 19.4 15.1 17.0 86 1.5 S 35 46 19 25 - - 0.0
25/02:00pm 19.4 14.8 17.0 86 1.5 S 37 46 20 25 - - 0.0
25/01:30pm 19.4 14.4 17.0 86 1.5 S 39 50 21 27 - - 0.0
25/01:00pm 19.7 13.9 16.9 84 1.7 S 43 54 23 29 - - 0.0
25/12:30pm 20.3 15.2 16.7 80 2.2 S 39 50 21 27 - - 0.0
25/12:00pm 20.5 15.2 16.3 77 2.5 S 39 50 21 27 - - 0.0
25/11:30am 21.6 17.6 16.8 74 2.9 S 33 43 18 23 - - 0.0
25/11:00am 21.1 17.0 16.5 75 2.8 SSE 33 43 18 23 - - 0.0
25/10:30am 21.4 19.0 16.4 73 3.0 SSE 24 35 13 19 - - 0.0
25/10:00am 21.6 19.8 16.1 71 3.3 SSE 20 26 11 14 - - 0.0
25/09:30am 23.6 23.7 16.4 64 4.4 SSE 11 19 6 10 - - 0.0
25/08:30am 23.5 24.5 21.0 86 1.6 SW 17 26 9 14 - - 0.4
25/08:00am 19.6 20.7 18.1 91 0.9 N 9 13 5 7 - - 0.4
25/07:30am 18.9 20.4 17.6 92 0.8 NE 6 7 3 4 - - 0.4
25/07:00am 18.4 20.5 17.1 92 0.8 E 2 6 1 3 - - 0.4
25/06:30am 17.9 19.4 16.6 92 0.8 NW 4 7 2 4 - - 0.4
25/06:00am 18.3 20.7 17.0 92 0.8 N 0 0 0 0 - - 0.4
25/05:30am 18.4 20.8 17.1 92 0.8 CALM 0 0 0 0 - - 0.4
25/05:00am 18.7 20.5 17.4 92 0.8 N 4 6 2 3 - - 0.4
25/04:30am 19.0 19.9 17.5 91 0.9 N 9 13 5 7 - - 0.4
25/04:00am 19.1 20.6 17.6 91 0.9 N 6 9 3 5 - - 0.4
25/03:30am 19.3 20.3 17.8 91 0.9 N 9 15 5 8 - - 0.4
25/03:00am 19.5 20.1 17.8 90 1.0 NNE 11 17 6 9 - - 0.4
25/02:30am 19.6 21.0 17.9 90 1.0 N 7 11 4 6 - - 0.4
25/02:00am 19.7 20.0 18.0 90 1.0 N 13 17 7 9 - - 0.4
25/01:30am 19.8 19.7 17.9 89 1.2 N 15 20 8 11 - - 0.4
25/01:00am 19.9 19.5 18.0 89 1.2 N 17 22 9 12 - - 0.4
25/12:30am 20.0 20.0 18.1 89 1.2 N 15 26 8 14 - - 0.4
25/12:00am 19.9 20.2 18.0 89 1.2 N 13 22 7 12 - - 0.4
 
Date/Time
EDT
Temp
°C
App
Temp
°C
Dew
Point
Rel
Hum
%
Delta-T
°C
Wind Press
QNH
hPa
Press
MSL
hPa
Rain
since 9 am
mm
Dir
 
Spd
km/h
Gust
km/h
Spd
kts
Gust
kts
24/11:30pm 19.9 19.0 18.2 90 1.1 N 20 32 11 17 - - 0.4
24/11:00pm 19.5 19.8 17.8 90 1.0 NW 13 19 7 10 - - 0.4
24/10:30pm 19.4 18.2 17.5 89 1.2 NE 20 28 11 15 - - 0.4
24/10:00pm 19.7 19.6 17.8 89 1.2 SE 15 17 8 9 - - 0.2
24/09:30pm 19.5 20.8 17.6 89 1.2 N 7 13 4 7 - - 0.2
24/09:00pm 19.6 19.8 17.6 88 1.2 NNE 13 19 7 10 - - 0.2
24/08:30pm 19.8 19.3 17.8 88 1.2 N 17 28 9 15 - - 0.2
24/08:00pm 19.7 17.8 17.7 88 1.2 N 24 32 13 17 - - 0.2
24/07:30pm 19.6 18.6 17.6 88 1.2 N 19 26 10 14 - - 0.2
24/07:00pm 19.7 18.7 17.5 87 1.3 N 19 24 10 13 - - 0.2
24/06:30pm 20.0 18.8 17.6 86 1.5 N 20 30 11 16 - - 0.2
24/06:00pm 20.2 18.7 17.8 86 1.5 N 22 32 12 17 - - 0.2
24/05:30pm 20.0 18.8 17.4 85 1.6 N 20 30 11 16 - - 0.2
24/05:00pm 20.5 18.6 17.7 84 1.7 N 24 32 13 17 - - 0.2
24/04:30pm 20.7 18.9 17.9 84 1.7 N 24 33 13 18 - - 0.2
24/04:00pm 20.7 18.5 17.9 84 1.7 N 26 39 14 21 - - 0.2
24/03:30pm 20.9 18.3 17.9 83 1.9 N 28 35 15 19 - - 0.2
24/03:00pm 21.0 18.8 17.8 82 2.0 N 26 41 14 22 - - 0.2
24/02:30pm 21.4 19.4 18.4 83 1.9 N 26 37 14 20 - - 0.2
24/02:00pm 21.2 19.5 18.2 83 1.9 NNE 24 33 13 18 - - 0.2
24/01:30pm 21.2 19.2 18.2 83 1.9 NNE 26 33 14 18 - - 0.2
24/01:00pm 21.1 18.2 17.9 82 2.0 NNE 30 37 16 20 - - 0.2
24/12:30pm 21.3 19.5 17.9 81 2.1 NNE 24 32 13 17 - - 0.2
24/12:00pm 21.3 19.4 17.7 80 2.2 NNE 24 33 13 18 - - 0.2
24/11:30am 22.0 21.4 18.4 80 2.3 NNE 19 26 10 14 - - 0.2
24/11:00am 20.9 19.2 17.3 80 2.2 NNE 22 30 12 16 - - 0.0
24/10:30am 21.1 20.9 17.7 81 2.1 NNE 15 22 8 12 - - 0.0
24/10:00am 19.9 18.9 16.7 82 1.9 NNE 17 22 9 12 - - 0.0
24/09:30am 19.9 20.2 16.9 83 1.8 NNE 11 15 6 8 - - 0.0
24/09:00am 20.0 21.4 17.4 85 1.6 ESE 6 11 3 6 - - 0.6
24/08:30am 19.7 20.6 17.5 87 1.3 N 9 13 5 7 - - 0.6
24/08:00am 18.9 19.6 17.0 89 1.1 NNW 9 15 5 8 - - 0.6
24/07:30am 18.2 19.1 16.7 91 0.9 NNW 7 11 4 6 - - 0.6
24/07:00am 17.9 16.8 16.4 91 0.9 NW 17 30 9 16 - - 0.6
24/06:30am 17.8 17.1 16.5 92 0.8 N 15 20 8 11 - - 0.6
24/06:00am 17.6 16.9 16.3 92 0.8 NNW 15 19 8 10 - - 0.6
24/05:30am 17.5 17.0 16.0 91 0.9 N 13 19 7 10 - - 0.6
24/05:00am 17.8 19.5 16.3 91 0.9 NNW 2 6 1 3 - - 0.6
24/04:30am 17.9 18.9 16.4 91 0.9 W 6 9 3 5 - - 0.6
24/04:00am 18.2 18.7 16.5 90 1.0 SE 9 11 5 6 - - 0.6
24/03:30am 18.6 19.9 17.1 91 0.9 S 6 20 3 11 - - 0.0
24/03:00am 18.2 17.6 16.7 91 0.9 WNW 15 20 8 11 - - 0.0
24/02:30am 18.2 18.0 16.7 91 0.9 NW 13 17 7 9 - - 0.0
24/02:00am 18.3 19.3 16.8 91 0.9 NNW 7 11 4 6 - - 0.0
24/01:30am 18.5 20.5 17.0 91 0.9 ENE 2 7 1 4 - - 0.0
24/01:00am 18.7 20.0 17.0 90 1.0 NNW 6 11 3 6 - - 0.0
24/12:30am 19.1 18.8 17.4 90 1.0 S 15 20 8 11 - - 0.0
24/12:00am 19.1 18.0 17.4 90 1.0 SSW 19 24 10 13 - - 0.0
 
Date/Time
EDT
Temp
°C
App
Temp
°C
Dew
Point
Rel
Hum
%
Delta-T
°C
Wind Press
QNH
hPa
Press
MSL
hPa
Rain
since 9 am
mm
Dir
 
Spd
km/h
Gust
km/h
Spd
kts
Gust
kts
23/11:30pm 19.1 19.2 17.4 90 1.0 S 13 17 7 9 - - 0.0
23/11:00pm 19.1 19.1 17.2 89 1.2 S 13 17 7 9 - - 0.0
23/10:30pm 19.1 19.5 17.2 89 1.2 S 11 15 6 8 - - 0.0
23/10:00pm 18.8 19.8 16.9 89 1.1 SSE 7 9 4 5 - - 0.0
23/09:30pm 18.6 19.5 16.6 88 1.2 S 7 11 4 6 - - 0.0
23/09:00pm 18.6 20.4 16.4 87 1.3 SSW 2 6 1 3 - - 0.0
23/08:30pm 18.8 20.9 16.2 85 1.6 CALM 0 0 0 0 - - 0.0
23/08:00pm 18.9 20.6 16.1 84 1.7 N 2 4 1 2 - - 0.0
23/07:30pm 19.4 21.6 16.4 83 1.8 CALM 0 0 0 0 - - 0.0
23/07:00pm 19.8 21.7 16.8 83 1.8 ENE 2 6 1 3 - - 0.0
23/06:30pm 20.3 22.7 17.1 82 1.9 CALM 0 0 0 0 - - 0.0
23/06:00pm 20.4 21.6 16.8 80 2.2 ESE 6 7 3 4 - - 0.0
23/05:30pm 20.9 22.2 17.1 79 2.3 SE 6 7 3 4 - - 0.0
23/05:00pm 21.1 22.7 16.9 77 2.6 E 4 6 2 3 - - 0.0
23/04:30pm 21.6 23.2 17.8 79 2.4 ESE 6 7 3 4 - - 0.0
23/04:00pm 21.4 22.3 17.6 79 2.3 SSE 9 11 5 6 - - 0.0
23/03:30pm 21.4 22.0 17.6 79 2.3 SSE 11 13 6 7 - - 0.0
23/03:00pm 21.2 21.2 17.2 78 2.5 SSE 13 15 7 8 - - 0.0
23/02:30pm 21.4 20.8 16.6 74 2.9 S 15 20 8 11 - - 0.0
23/02:00pm 21.9 22.7 17.3 75 2.8 S 9 13 5 7 - - 0.0
23/01:30pm 21.1 22.4 17.5 80 2.2 SSE 7 9 4 5 - - 0.0
23/01:00pm 21.0 22.4 17.4 80 2.2 S 6 7 3 4 - - 0.0
23/12:30pm 21.0 22.3 17.0 78 2.4 SE 6 7 3 4 - - 0.0
23/12:00pm 20.8 22.4 17.0 79 2.3 ESE 4 7 2 4 - - 0.0
23/11:30am 20.1 21.0 16.5 80 2.2 SE 7 9 4 5 - - 0.0
23/11:00am 19.5 20.2 16.0 80 2.1 SSE 7 9 4 5 - - 0.0
23/10:30am 19.1 18.5 15.6 80 2.1 SSE 13 15 7 8 - - 0.0
23/10:00am 19.6 20.3 16.1 80 2.1 SE 7 11 4 6 - - 0.0
23/09:30am 19.0 20.1 15.5 80 2.1 SSE 4 6 2 3 - - 0.0
23/09:00am 18.6 18.9 15.1 80 2.0 SSE 7 9 4 5 - - 0.0
23/08:30am 18.6 20.3 15.1 80 2.0 CALM 0 0 0 0 - - 0.0
23/08:00am 18.2 19.9 15.1 82 1.8 CALM 0 0 0 0 - - 0.0
23/07:30am 17.0 18.4 14.3 84 1.5 CALM 0 2 0 1 - - 0.0
23/07:00am 16.3 17.1 13.8 85 1.4 WSW 2 4 1 2 - - 0.0
23/06:30am 15.1 15.9 12.6 85 1.4 CALM 0 0 0 0 - - 0.0
23/06:00am 15.2 14.9 12.7 85 1.4 W 6 9 3 5 - - 0.0
23/05:30am 14.9 13.9 12.4 85 1.4 W 9 11 5 6 - - 0.0
23/05:00am 15.0 14.0 12.3 84 1.5 W 9 11 5 6 - - 0.0
23/04:30am 15.2 14.3 12.5 84 1.5 W 9 9 5 5 - - 0.0
23/04:00am 15.0 14.5 12.1 83 1.6 WNW 6 7 3 4 - - 0.0
23/03:30am 15.4 15.0 12.3 82 1.7 NW 6 9 3 5 - - 0.0
23/03:00am 15.5 15.0 12.6 83 1.6 NW 7 9 4 5 - - 0.0
23/02:30am 15.2 14.3 12.5 84 1.5 NW 9 11 5 6 - - 0.0
23/02:00am 14.9 14.3 12.2 84 1.5 NW 7 11 4 6 - - 0.0
23/01:30am 15.0 14.4 12.3 84 1.5 NW 7 11 4 6 - - 0.0
23/01:00am 15.1 14.1 12.2 83 1.6 NW 9 13 5 7 - - 0.0
23/12:30am 15.5 14.5 12.4 82 1.7 NW 9 13 5 7 - - 0.0
23/12:00am 15.8 15.3 12.7 82 1.7 NNW 7 13 4 7 - - 0.0
 
Date/Time
EDT
Temp
°C
App
Temp
°C
Dew
Point
Rel
Hum
%
Delta-T
°C
Wind Press
QNH
hPa
Press
MSL
hPa
Rain
since 9 am
mm
Dir
 
Spd
km/h
Gust
km/h
Spd
kts
Gust
kts
22/11:30pm 15.9 15.4 12.8 82 1.7 NNW 7 11 4 6 - - 0.0

Other Formats:

Comma delimited format used in spreadsheet applications
http://www.bom.gov.au/fwo/IDN60801/IDN60801.95749.axf

JavaScript Object Notation format (JSON) in row-major order
http://www.bom.gov.au/fwo/IDN60801/IDN60801.95749.json